createdAt,value
2023-03-02T00:00:01.449Z,92.20
2023-03-02T00:00:34.357Z,92.55
2023-03-02T00:01:08.699Z,92.15
2023-03-02T00:01:49.865Z,91.79
2023-03-02T00:02:22.886Z,92.04
2023-03-02T00:02:54.648Z,91.70
2023-03-02T00:03:26.992Z,91.72
2023-03-02T00:04:00.527Z,91.78
2023-03-02T00:04:38.316Z,91.73
2023-03-02T00:05:11.066Z,91.56
2023-03-02T00:05:42.655Z,91.74
2023-03-02T00:06:14.714Z,92.18
2023-03-02T00:06:46.697Z,92.07
2023-03-02T00:07:24.540Z,92.04
2023-03-02T00:07:59.308Z,91.93
2023-03-02T00:08:32.038Z,92.14
2023-03-02T00:09:06.168Z,92.14
2023-03-02T00:09:38.619Z,91.77
2023-03-02T00:10:10.965Z,91.95
2023-03-02T00:10:42.799Z,92.47
2023-03-02T00:11:15.679Z,92.29
2023-03-02T00:11:47.452Z,92.21
2023-03-02T00:12:19.120Z,92.23
2023-03-02T00:12:51.088Z,91.93
2023-03-02T00:13:23.007Z,91.53
2023-03-02T00:13:54.634Z,91.62
2023-03-02T00:14:26.476Z,91.67
2023-03-02T00:14:58.146Z,91.81
2023-03-02T00:15:29.869Z,91.98
2023-03-02T00:16:01.726Z,91.85
2023-03-02T00:16:34.206Z,92.13
2023-03-02T00:17:08.011Z,91.90
2023-03-02T00:17:39.645Z,92.59
2023-03-02T00:18:11.279Z,92.14
2023-03-02T00:18:42.907Z,92.29
2023-03-02T00:19:14.581Z,92.61
2023-03-02T00:19:46.355Z,92.65
2023-03-02T00:20:18.257Z,92.57
2023-03-02T00:20:49.975Z,92.69
2023-03-02T00:21:21.678Z,92.63
2023-03-02T00:21:53.270Z,92.51
2023-03-02T00:22:25.137Z,92.65
2023-03-02T00:22:56.798Z,92.64
2023-03-02T00:23:28.478Z,92.57
2023-03-02T00:24:00.136Z,92.47
2023-03-02T00:24:32.007Z,92.51
2023-03-02T00:25:04.630Z,92.21
2023-03-02T00:25:36.582Z,91.77
2023-03-02T00:26:08.375Z,91.90
2023-03-02T00:26:40.006Z,91.97
2023-03-02T00:27:11.655Z,92.10
2023-03-02T00:27:43.901Z,91.63
2023-03-02T00:28:15.541Z,91.68
2023-03-02T00:28:47.372Z,91.86
2023-03-02T00:29:19.142Z,91.92
2023-03-02T00:29:51.596Z,91.74
2023-03-02T00:30:23.324Z,91.89
2023-03-02T00:30:55.167Z,92.01
2023-03-02T00:31:27.162Z,92.10
2023-03-02T00:31:58.916Z,92.28
2023-03-02T00:32:30.635Z,92.11
2023-03-02T00:33:02.434Z,92.21
2023-03-02T00:33:34.781Z,91.79
2023-03-02T00:34:06.429Z,92.02
2023-03-02T00:34:38.280Z,92.45
2023-03-02T00:35:10.570Z,92.28
2023-03-02T00:35:42.178Z,91.95
2023-03-02T00:36:18.169Z,91.47
2023-03-02T00:36:49.940Z,91.52
2023-03-02T00:37:21.556Z,91.66
2023-03-02T00:37:53.503Z,91.63
2023-03-02T00:38:25.153Z,91.71
2023-03-02T00:38:57.744Z,91.64
2023-03-02T00:39:30.434Z,92.01
2023-03-02T00:40:04.793Z,92.42
2023-03-02T00:40:36.628Z,92.33
2023-03-02T00:41:08.226Z,92.20
2023-03-02T00:41:39.959Z,92.37
2023-03-02T00:42:11.561Z,92.43
2023-03-02T00:42:43.476Z,92.11
2023-03-02T00:43:15.874Z,92.60
2023-03-02T00:43:48.348Z,92.31
2023-03-02T00:44:19.960Z,92.90
2023-03-02T00:44:53.339Z,93.09
2023-03-02T00:45:24.959Z,93.63
2023-03-02T00:45:56.615Z,93.76
2023-03-02T00:46:28.700Z,93.48
2023-03-02T00:47:00.846Z,93.57
2023-03-02T00:47:36.162Z,93.73
2023-03-02T00:48:08.382Z,93.64
2023-03-02T00:48:40.272Z,93.68
2023-03-02T00:49:12.670Z,94.02
2023-03-02T00:49:49.036Z,93.92
2023-03-02T00:50:20.773Z,93.77
2023-03-02T00:50:52.397Z,93.86
2023-03-02T00:51:25.150Z,94.00
2023-03-02T00:51:56.777Z,94.20
2023-03-02T00:52:32.068Z,94.35
2023-03-02T00:53:05.155Z,94.53
2023-03-02T00:53:37.473Z,94.54
2023-03-02T00:54:09.273Z,94.57
2023-03-02T00:54:40.943Z,94.64
2023-03-02T00:55:12.573Z,94.70
2023-03-02T00:55:53.514Z,94.40
2023-03-02T00:56:25.132Z,94.26
2023-03-02T00:56:56.749Z,93.98
2023-03-02T00:57:28.564Z,93.79
2023-03-02T00:58:00.166Z,94.31
2023-03-02T00:58:32.303Z,94.51
2023-03-02T00:59:05.825Z,94.59
2023-03-02T00:59:38.901Z,93.23
2023-03-02T01:00:11.377Z,93.75
2023-03-02T01:00:43.651Z,93.72
2023-03-02T01:01:17.138Z,93.91
2023-03-02T01:01:58.162Z,91.90
2023-03-02T01:02:30.093Z,90.91
2023-03-02T01:03:01.829Z,91.25
2023-03-02T01:03:33.573Z,90.99
2023-03-02T01:04:05.528Z,90.70
2023-03-02T01:04:40.576Z,91.06
2023-03-02T01:05:12.326Z,91.32
2023-03-02T01:05:44.443Z,91.34
2023-03-02T01:06:21.118Z,91.05
2023-03-02T01:06:52.816Z,91.49
2023-03-02T01:07:28.506Z,91.28
2023-03-02T01:08:00.336Z,91.48
2023-03-02T01:08:32.445Z,92.19
2023-03-02T01:09:04.150Z,93.22
2023-03-02T01:09:35.775Z,94.29
2023-03-02T01:10:07.898Z,94.38
2023-03-02T01:10:39.884Z,94.76
2023-03-02T01:11:20.299Z,94.16
2023-03-02T01:11:52.312Z,94.15
2023-03-02T01:12:23.983Z,94.42
2023-03-02T01:12:55.559Z,95.00
2023-03-02T01:13:27.516Z,95.18
2023-03-02T01:13:59.107Z,95.09
2023-03-02T01:14:30.774Z,95.32
2023-03-02T01:15:03.234Z,95.41
2023-03-02T01:15:35.096Z,95.39
2023-03-02T01:16:07.061Z,95.23
2023-03-02T01:16:38.836Z,95.19
2023-03-02T01:17:12.401Z,95.16
2023-03-02T01:17:44.209Z,94.94
2023-03-02T01:18:15.919Z,94.77
2023-03-02T01:18:47.523Z,94.68
2023-03-02T01:19:19.199Z,94.78
2023-03-02T01:19:51.562Z,94.46
2023-03-02T01:20:23.349Z,93.64
2023-03-02T01:21:03.448Z,93.02
2023-03-02T01:21:35.245Z,92.35
2023-03-02T01:22:07.494Z,92.79
2023-03-02T01:22:39.277Z,93.17
2023-03-02T01:23:10.873Z,93.09
2023-03-02T01:23:42.598Z,92.83
2023-03-02T01:24:14.316Z,92.83
2023-03-02T01:24:45.944Z,93.04
2023-03-02T01:25:17.823Z,92.88
2023-03-02T01:25:49.406Z,93.04
2023-03-02T01:26:21.253Z,93.12
2023-03-02T01:26:53.084Z,92.86
2023-03-02T01:27:24.666Z,93.13
2023-03-02T01:27:56.337Z,92.95
2023-03-02T01:28:28.146Z,92.82
2023-03-02T01:28:59.934Z,92.99
2023-03-02T01:29:31.749Z,92.85
2023-03-02T01:30:03.923Z,92.59
2023-03-02T01:30:35.646Z,93.20
2023-03-02T01:31:07.404Z,92.78
2023-03-02T01:31:39.586Z,92.46
2023-03-02T01:32:11.649Z,92.02
2023-03-02T01:32:43.389Z,92.14
2023-03-02T01:33:15.149Z,92.25
2023-03-02T01:33:46.724Z,92.57
2023-03-02T01:34:18.453Z,92.65
2023-03-02T01:34:50.041Z,92.21
2023-03-02T01:35:21.651Z,92.25
2023-03-02T01:35:53.314Z,92.52
2023-03-02T01:36:25.083Z,92.44
2023-03-02T01:36:56.764Z,92.39
2023-03-02T01:37:28.520Z,92.27
2023-03-02T01:38:00.463Z,92.46
2023-03-02T01:38:32.305Z,92.58
2023-03-02T01:39:04.932Z,92.43
2023-03-02T01:39:36.634Z,92.30
2023-03-02T01:40:09.837Z,92.40
2023-03-02T01:40:41.952Z,92.45
2023-03-02T01:41:13.970Z,92.37
2023-03-02T01:41:46.718Z,92.27
2023-03-02T01:42:18.702Z,92.05
2023-03-02T01:42:58.281Z,92.25
2023-03-02T01:43:30.093Z,92.12
2023-03-02T01:44:01.732Z,92.09
2023-03-02T01:44:50.940Z,92.27
2023-03-02T01:45:46.382Z,92.28
2023-03-02T01:46:22.041Z,92.82
2023-03-02T01:46:53.677Z,92.97
2023-03-02T01:47:37.951Z,93.12
2023-03-02T01:48:12.541Z,92.94
2023-03-02T01:49:03.723Z,93.00
2023-03-02T01:49:38.074Z,93.17
2023-03-02T01:50:20.874Z,92.83
2023-03-02T01:50:53.238Z,92.05
2023-03-02T01:51:27.348Z,91.76
2023-03-02T01:51:59.207Z,91.20
2023-03-02T01:52:35.117Z,90.77
2023-03-02T01:53:07.388Z,90.54
2023-03-02T01:53:39.179Z,90.79
2023-03-02T01:54:17.347Z,91.27
2023-03-02T01:54:51.510Z,91.54
2023-03-02T01:55:26.130Z,91.50
2023-03-02T01:55:59.611Z,91.74
2023-03-02T01:56:36.144Z,92.36
2023-03-02T01:57:08.880Z,92.88
2023-03-02T01:57:46.722Z,93.14
2023-03-02T01:58:18.794Z,93.56
2023-03-02T01:58:56.342Z,94.15
2023-03-02T01:59:30.934Z,93.59
2023-03-02T02:00:10.863Z,93.75
2023-03-02T02:00:43.397Z,93.84
2023-03-02T02:01:17.943Z,93.92
2023-03-02T02:01:54.265Z,94.42
2023-03-02T02:02:26.813Z,94.97
2023-03-02T02:03:09.807Z,94.87
2023-03-02T02:03:47.234Z,95.06
2023-03-02T02:04:20.770Z,94.74
2023-03-02T02:04:54.873Z,94.59
2023-03-02T02:05:28.211Z,95.27
2023-03-02T02:06:08.836Z,95.56
2023-03-02T02:06:51.206Z,95.42
2023-03-02T02:07:22.953Z,95.09
2023-03-02T02:07:54.692Z,94.74
2023-03-02T02:08:26.447Z,94.67
2023-03-02T02:09:00.140Z,94.48
2023-03-02T02:09:36.389Z,94.10
2023-03-02T02:10:09.074Z,93.71
2023-03-02T02:10:40.964Z,93.42
2023-03-02T02:11:13.791Z,93.17
2023-03-02T02:11:46.091Z,93.12
2023-03-02T02:12:20.620Z,93.01
2023-03-02T02:12:52.545Z,92.84
2023-03-02T02:13:24.291Z,92.80
2023-03-02T02:13:59.372Z,92.68
2023-03-02T02:14:30.954Z,92.22
2023-03-02T02:15:04.092Z,92.28
2023-03-02T02:15:35.856Z,92.12
2023-03-02T02:16:07.842Z,92.51
2023-03-02T02:16:41.024Z,92.64
2023-03-02T02:17:13.691Z,92.65
2023-03-02T02:17:45.472Z,92.82
2023-03-02T02:18:17.120Z,92.93
2023-03-02T02:18:48.926Z,93.10
2023-03-02T02:19:23.417Z,92.98
2023-03-02T02:20:25.043Z,92.83
2023-03-02T02:20:57.477Z,92.84
2023-03-02T02:21:29.544Z,92.26
2023-03-02T02:22:01.851Z,91.76
2023-03-02T02:22:51.978Z,92.30
2023-03-02T02:23:34.627Z,92.54
2023-03-02T02:24:15.080Z,92.63
2023-03-02T02:24:52.368Z,92.34
2023-03-02T02:25:41.952Z,92.20
2023-03-02T02:26:22.632Z,92.10
2023-03-02T02:26:56.332Z,92.15
2023-03-02T02:27:34.043Z,92.20
2023-03-02T02:28:13.044Z,91.93
2023-03-02T02:29:00.929Z,91.78
2023-03-02T02:29:40.376Z,91.93
2023-03-02T02:30:14.566Z,91.72
2023-03-02T02:30:50.607Z,91.63
2023-03-02T02:31:29.048Z,91.63
2023-03-02T02:32:12.711Z,91.63
2023-03-02T02:32:45.986Z,91.94
2023-03-02T02:33:23.551Z,91.87
2023-03-02T02:34:22.831Z,91.93
2023-03-02T02:35:19.936Z,91.23
2023-03-02T02:36:02.410Z,91.37
2023-03-02T02:36:40.084Z,91.37
2023-03-02T02:37:26.183Z,91.74
2023-03-02T02:38:03.522Z,91.45
2023-03-02T02:38:36.541Z,91.29
2023-03-02T02:39:16.546Z,91.49
2023-03-02T02:39:50.199Z,91.69
2023-03-02T02:40:53.070Z,91.33
2023-03-02T02:41:34.651Z,91.93
2023-03-02T02:42:13.042Z,92.06
2023-03-02T02:42:50.305Z,92.26
2023-03-02T02:43:23.369Z,92.07
2023-03-02T02:43:55.677Z,92.03
2023-03-02T02:44:27.355Z,91.90
2023-03-02T02:45:02.974Z,91.91
2023-03-02T02:45:36.159Z,91.74
2023-03-02T02:46:10.463Z,91.65
2023-03-02T02:46:42.538Z,91.41
2023-03-02T02:47:22.284Z,92.07
2023-03-02T02:47:56.410Z,92.22
2023-03-02T02:48:31.250Z,92.24
2023-03-02T02:49:04.325Z,91.93
2023-03-02T02:49:38.465Z,91.75
2023-03-02T02:50:22.702Z,91.74
2023-03-02T02:51:00.693Z,91.73
2023-03-02T02:51:33.245Z,91.52
2023-03-02T02:52:06.475Z,91.54
2023-03-02T02:52:39.605Z,91.50
2023-03-02T02:53:19.403Z,91.52
2023-03-02T02:54:02.661Z,91.37
2023-03-02T02:54:37.128Z,91.94
2023-03-02T02:55:16.024Z,91.94
2023-03-02T02:55:52.286Z,92.09
2023-03-02T02:56:25.202Z,92.24
2023-03-02T02:56:58.450Z,92.01
2023-03-02T02:57:31.228Z,91.88
2023-03-02T02:58:10.040Z,91.88
2023-03-02T02:58:51.669Z,92.40
2023-03-02T02:59:28.988Z,92.52
2023-03-02T03:00:01.889Z,92.38
2023-03-02T03:00:33.472Z,92.39
2023-03-02T03:01:06.163Z,92.33
2023-03-02T03:01:38.069Z,92.38
2023-03-02T03:02:21.078Z,92.55
2023-03-02T03:03:03.777Z,92.42
2023-03-02T03:03:38.031Z,92.15
2023-03-02T03:04:12.552Z,92.06
2023-03-02T03:04:44.204Z,92.13
2023-03-02T03:05:16.756Z,92.19
2023-03-02T03:05:48.557Z,92.70
2023-03-02T03:06:25.976Z,92.72
2023-03-02T03:07:00.468Z,92.74
2023-03-02T03:07:32.985Z,92.59
2023-03-02T03:08:30.784Z,92.32
2023-03-02T03:09:02.830Z,92.55
2023-03-02T03:09:34.594Z,92.66
2023-03-02T03:10:22.018Z,92.33
2023-03-02T03:10:53.653Z,92.18
2023-03-02T03:11:29.553Z,92.37
2023-03-02T03:12:13.984Z,92.55
2023-03-02T03:12:46.634Z,92.85
2023-03-02T03:13:18.358Z,92.98
2023-03-02T03:13:56.552Z,93.25
2023-03-02T03:14:36.158Z,93.39
2023-03-02T03:15:08.801Z,93.21
2023-03-02T03:15:40.396Z,93.21
2023-03-02T03:16:16.380Z,93.45
2023-03-02T03:16:50.313Z,93.44
2023-03-02T03:17:21.965Z,93.49
2023-03-02T03:17:58.226Z,93.53
2023-03-02T03:18:31.858Z,93.48
2023-03-02T03:19:24.313Z,93.11
2023-03-02T03:20:03.329Z,92.75
2023-03-02T03:20:35.020Z,92.67
2023-03-02T03:21:06.769Z,92.75
2023-03-02T03:21:38.466Z,92.91
2023-03-02T03:22:13.996Z,92.81
2023-03-02T03:22:45.663Z,92.89
2023-03-02T03:23:17.368Z,93.00
2023-03-02T03:23:50.109Z,92.90
2023-03-02T03:24:23.081Z,92.81
2023-03-02T03:24:54.727Z,92.82
2023-03-02T03:25:28.604Z,92.88
2023-03-02T03:26:00.187Z,92.86
2023-03-02T03:26:32.084Z,92.53
2023-03-02T03:27:06.834Z,92.21
2023-03-02T03:27:38.530Z,92.05
2023-03-02T03:28:10.273Z,92.04
2023-03-02T03:28:41.886Z,91.92
2023-03-02T03:29:14.852Z,92.26
2023-03-02T03:29:48.409Z,92.01
2023-03-02T03:30:20.501Z,92.00
2023-03-02T03:30:52.106Z,92.74
2023-03-02T03:31:28.013Z,93.27
2023-03-02T03:32:01.651Z,93.48
2023-03-02T03:32:35.525Z,93.11
2023-03-02T03:33:11.109Z,93.04
2023-03-02T03:33:42.731Z,93.08
2023-03-02T03:34:14.642Z,93.04
2023-03-02T03:34:46.955Z,92.98
2023-03-02T03:35:18.725Z,92.93
2023-03-02T03:35:50.397Z,92.73
2023-03-02T03:36:22.727Z,92.52
2023-03-02T03:36:55.209Z,92.59
2023-03-02T03:37:27.011Z,92.62
2023-03-02T03:37:58.634Z,92.36
2023-03-02T03:38:30.542Z,92.38
2023-03-02T03:39:04.044Z,92.57
2023-03-02T03:39:36.593Z,92.64
2023-03-02T03:40:09.883Z,92.65
2023-03-02T03:40:41.657Z,92.76
2023-03-02T03:41:13.828Z,92.67
2023-03-02T03:41:45.450Z,92.70
2023-03-02T03:42:17.090Z,92.54
2023-03-02T03:42:48.872Z,92.53
2023-03-02T03:43:20.454Z,92.65
2023-03-02T03:43:52.995Z,92.75
2023-03-02T03:44:24.690Z,92.76
2023-03-02T03:44:56.352Z,92.79
2023-03-02T03:45:30.267Z,92.69
2023-03-02T03:46:02.198Z,92.33
2023-03-02T03:46:34.778Z,92.25
2023-03-02T03:47:06.683Z,92.19
2023-03-02T03:47:38.327Z,91.94
2023-03-02T03:48:09.955Z,92.17
2023-03-02T03:48:42.812Z,91.94
2023-03-02T03:49:14.499Z,92.24
2023-03-02T03:49:46.275Z,91.92
2023-03-02T03:50:17.920Z,91.73
2023-03-02T03:50:49.920Z,91.71
2023-03-02T03:51:21.739Z,92.01
2023-03-02T03:51:53.349Z,92.26
2023-03-02T03:52:30.857Z,92.54
2023-03-02T03:53:03.905Z,92.51
2023-03-02T03:53:35.824Z,92.77
2023-03-02T03:54:09.298Z,92.76
2023-03-02T03:54:40.921Z,92.59
2023-03-02T03:55:13.672Z,92.48
2023-03-02T03:55:45.333Z,92.38
2023-03-02T03:56:17.117Z,92.87
2023-03-02T03:56:50.335Z,92.92
2023-03-02T03:57:22.029Z,92.97
2023-03-02T03:57:54.037Z,93.03
2023-03-02T03:58:26.124Z,93.76
2023-03-02T03:59:07.408Z,93.57
2023-03-02T03:59:39.102Z,93.38
2023-03-02T04:00:19.972Z,93.09
2023-03-02T04:00:52.818Z,92.92
2023-03-02T04:01:34.996Z,92.58
2023-03-02T04:02:06.787Z,92.18
2023-03-02T04:02:38.411Z,92.18
2023-03-02T04:03:10.201Z,92.65
2023-03-02T04:03:41.806Z,93.00
2023-03-02T04:04:22.587Z,92.62
2023-03-02T04:04:54.186Z,92.75
2023-03-02T04:05:25.972Z,92.80
2023-03-02T04:05:57.849Z,93.30
2023-03-02T04:06:29.544Z,93.42
2023-03-02T04:07:01.413Z,93.69
2023-03-02T04:07:34.667Z,93.42
2023-03-02T04:08:06.839Z,93.40
2023-03-02T04:08:38.437Z,93.33
2023-03-02T04:09:10.069Z,93.02
2023-03-02T04:09:42.241Z,93.06
2023-03-02T04:10:13.938Z,92.76
2023-03-02T04:10:45.924Z,92.58
2023-03-02T04:11:17.544Z,92.42
2023-03-02T04:11:51.541Z,92.48
2023-03-02T04:12:23.108Z,92.43
2023-03-02T04:12:54.845Z,92.31
2023-03-02T04:13:26.514Z,92.30
2023-03-02T04:13:58.383Z,92.06
2023-03-02T04:14:30.139Z,92.18
2023-03-02T04:15:02.546Z,92.32
2023-03-02T04:15:34.670Z,92.24
2023-03-02T04:16:06.847Z,92.18
2023-03-02T04:16:39.821Z,92.10
2023-03-02T04:17:11.530Z,92.26
2023-03-02T04:17:44.953Z,92.41
2023-03-02T04:18:16.626Z,92.49
2023-03-02T04:18:48.278Z,92.51
2023-03-02T04:19:20.015Z,92.79
2023-03-02T04:19:51.876Z,92.69
2023-03-02T04:20:24.737Z,93.18
2023-03-02T04:20:56.515Z,93.26
2023-03-02T04:21:28.809Z,93.10
2023-03-02T04:22:01.914Z,93.05
2023-03-02T04:22:33.777Z,93.07
2023-03-02T04:23:05.372Z,92.97
2023-03-02T04:23:36.945Z,92.79
2023-03-02T04:24:09.780Z,92.89
2023-03-02T04:24:41.535Z,92.63
2023-03-02T04:25:14.881Z,92.68
2023-03-02T04:25:46.531Z,92.70
2023-03-02T04:26:18.303Z,92.68
2023-03-02T04:26:51.096Z,92.81
2023-03-02T04:27:22.758Z,93.01
2023-03-02T04:27:54.966Z,92.93
2023-03-02T04:28:26.661Z,92.81
2023-03-02T04:28:58.406Z,92.65
2023-03-02T04:29:32.224Z,92.59
2023-03-02T04:30:04.524Z,92.47
2023-03-02T04:30:36.146Z,92.38
2023-03-02T04:31:07.834Z,92.24
2023-03-02T04:31:40.242Z,92.18
2023-03-02T04:32:15.407Z,92.38
2023-03-02T04:32:47.097Z,92.47
2023-03-02T04:33:18.690Z,92.31
2023-03-02T04:33:50.266Z,92.39
2023-03-02T04:34:21.975Z,92.24
2023-03-02T04:34:53.700Z,92.33
2023-03-02T04:35:25.758Z,92.46
2023-03-02T04:35:57.463Z,92.52
2023-03-02T04:36:30.331Z,92.55
2023-03-02T04:37:03.641Z,92.28
2023-03-02T04:37:35.306Z,92.01
2023-03-02T04:38:07.089Z,92.04
2023-03-02T04:38:39.148Z,92.18
2023-03-02T04:39:12.733Z,92.84
2023-03-02T04:39:47.405Z,93.27
2023-03-02T04:40:19.141Z,93.38
2023-03-02T04:40:50.748Z,93.30
2023-03-02T04:41:22.639Z,93.48
2023-03-02T04:41:54.876Z,93.66
2023-03-02T04:42:26.582Z,93.61
2023-03-02T04:42:58.255Z,93.61
2023-03-02T04:43:30.003Z,93.58
2023-03-02T04:44:02.011Z,93.51
2023-03-02T04:44:33.607Z,92.98
2023-03-02T04:45:05.780Z,93.18
2023-03-02T04:45:37.466Z,93.25
2023-03-02T04:46:15.826Z,93.12
2023-03-02T04:46:48.471Z,93.11
2023-03-02T04:47:20.129Z,93.23
2023-03-02T04:47:51.812Z,93.20
2023-03-02T04:48:23.480Z,93.26
2023-03-02T04:48:55.460Z,93.20
2023-03-02T04:49:27.368Z,92.89
2023-03-02T04:49:59.126Z,93.46
2023-03-02T04:50:30.907Z,93.72
2023-03-02T04:51:02.769Z,93.42
2023-03-02T04:51:40.145Z,93.39
2023-03-02T04:52:11.786Z,93.36
2023-03-02T04:52:43.507Z,93.34
2023-03-02T04:53:15.720Z,93.23
2023-03-02T04:53:47.407Z,93.12
2023-03-02T04:54:26.129Z,93.10
2023-03-02T04:54:57.881Z,92.80
2023-03-02T04:55:29.539Z,93.02
2023-03-02T04:56:01.291Z,92.88
2023-03-02T04:56:34.019Z,93.19
2023-03-02T04:57:05.845Z,93.63
2023-03-02T04:57:37.522Z,93.28
2023-03-02T04:58:09.699Z,93.22
2023-03-02T04:58:42.616Z,93.21
2023-03-02T04:59:19.943Z,93.20
2023-03-02T04:59:51.560Z,93.20
2023-03-02T05:00:23.992Z,93.09
2023-03-02T05:01:02.186Z,92.75
2023-03-02T05:01:34.002Z,92.83
2023-03-02T05:02:05.996Z,92.92
2023-03-02T05:02:37.766Z,93.25
2023-03-02T05:03:09.393Z,93.16
2023-03-02T05:03:41.275Z,93.01
2023-03-02T05:04:13.831Z,92.67
2023-03-02T05:04:45.597Z,92.60
2023-03-02T05:05:21.331Z,92.56
2023-03-02T05:05:52.933Z,92.48
2023-03-02T05:06:25.297Z,92.41
2023-03-02T05:06:57.855Z,92.48
2023-03-02T05:07:29.541Z,92.33
2023-03-02T05:08:01.184Z,92.62
2023-03-02T05:08:33.157Z,92.32
2023-03-02T05:09:05.174Z,92.21
2023-03-02T05:09:36.813Z,92.42
2023-03-02T05:10:09.184Z,92.59
2023-03-02T05:10:40.864Z,92.92
2023-03-02T05:11:22.531Z,92.78
2023-03-02T05:11:55.336Z,92.83
2023-03-02T05:12:27.021Z,92.95
2023-03-02T05:12:58.687Z,93.19
2023-03-02T05:13:30.304Z,93.31
2023-03-02T05:14:04.522Z,93.20
2023-03-02T05:14:36.182Z,93.04
2023-03-02T05:15:08.077Z,92.85
2023-03-02T05:15:40.860Z,92.48
2023-03-02T05:16:12.543Z,92.25
2023-03-02T05:16:44.338Z,92.30
2023-03-02T05:17:16.063Z,92.40
2023-03-02T05:17:47.821Z,92.24
2023-03-02T05:18:20.588Z,91.96
2023-03-02T05:18:52.377Z,91.60
2023-03-02T05:19:24.341Z,91.78
2023-03-02T05:19:55.926Z,90.88
2023-03-02T05:20:30.269Z,90.63
2023-03-02T05:21:02.352Z,90.33
2023-03-02T05:21:34.342Z,90.44
2023-03-02T05:22:06.144Z,90.78
2023-03-02T05:22:38.390Z,91.22
2023-03-02T05:23:11.700Z,91.96
2023-03-02T05:23:43.670Z,92.44
2023-03-02T05:24:15.433Z,92.17
2023-03-02T05:24:47.178Z,92.80
2023-03-02T05:25:18.831Z,92.94
2023-03-02T05:25:55.949Z,92.98
2023-03-02T05:26:27.922Z,92.87
2023-03-02T05:26:59.549Z,93.25
2023-03-02T05:27:31.209Z,93.86
2023-03-02T05:28:04.249Z,94.25
2023-03-02T05:28:36.088Z,93.69
2023-03-02T05:29:07.799Z,93.60
2023-03-02T05:29:39.484Z,93.36
2023-03-02T05:30:11.981Z,93.26
2023-03-02T05:30:43.940Z,93.38
2023-03-02T05:31:26.542Z,93.30
2023-03-02T05:31:58.549Z,93.59
2023-03-02T05:32:30.196Z,93.47
2023-03-02T05:33:01.829Z,93.63
2023-03-02T05:33:34.009Z,93.45
2023-03-02T05:34:08.840Z,93.08
2023-03-02T05:34:40.525Z,92.53
2023-03-02T05:35:14.216Z,92.68
2023-03-02T05:35:46.609Z,93.05
2023-03-02T05:36:20.264Z,93.10
2023-03-02T05:36:52.932Z,93.26
2023-03-02T05:37:24.628Z,93.24
2023-03-02T05:37:56.325Z,93.30
2023-03-02T05:38:28.080Z,93.73
2023-03-02T05:38:59.724Z,93.73
2023-03-02T05:39:31.335Z,93.91
2023-03-02T05:40:03.235Z,94.08
2023-03-02T05:40:35.884Z,94.08
2023-03-02T05:41:07.857Z,93.77
2023-03-02T05:41:40.547Z,93.63
2023-03-02T05:42:12.198Z,93.43
2023-03-02T05:42:44.454Z,93.67
2023-03-02T05:43:19.470Z,93.56
2023-03-02T05:43:51.221Z,93.42
2023-03-02T05:44:22.858Z,93.44
2023-03-02T05:44:54.466Z,93.24
2023-03-02T05:45:29.996Z,92.94
2023-03-02T05:46:02.487Z,93.09
2023-03-02T05:46:34.610Z,93.09
2023-03-02T05:47:06.557Z,92.94
2023-03-02T05:47:38.191Z,92.94
2023-03-02T05:48:12.218Z,92.85
2023-03-02T05:48:43.873Z,92.44
2023-03-02T05:49:15.505Z,92.31
2023-03-02T05:49:47.143Z,92.12
2023-03-02T05:50:19.267Z,92.21
2023-03-02T05:50:51.081Z,92.20
2023-03-02T05:51:22.824Z,92.21
2023-03-02T05:51:54.413Z,92.11
2023-03-02T05:52:26.366Z,92.08
2023-03-02T05:53:00.262Z,92.07
2023-03-02T05:53:31.963Z,91.94
2023-03-02T05:54:03.692Z,92.15
2023-03-02T05:54:35.368Z,91.88
2023-03-02T05:55:07.557Z,91.91
2023-03-02T05:55:39.271Z,91.67
2023-03-02T05:56:11.219Z,91.93
2023-03-02T05:56:42.904Z,92.11
2023-03-02T05:57:14.470Z,91.94
2023-03-02T05:57:49.317Z,91.82
2023-03-02T05:58:21.350Z,91.63
2023-03-02T05:58:53.128Z,91.32
2023-03-02T05:59:24.899Z,91.29
2023-03-02T05:59:56.599Z,91.32
2023-03-02T06:00:28.178Z,91.50
2023-03-02T06:01:01.016Z,91.34
2023-03-02T06:01:32.842Z,90.74
2023-03-02T06:02:04.844Z,91.01
2023-03-02T06:02:39.333Z,91.24
2023-03-02T06:03:11.223Z,91.44
2023-03-02T06:03:43.854Z,91.48
2023-03-02T06:04:15.487Z,91.56
2023-03-02T06:04:47.067Z,91.61
2023-03-02T06:05:20.072Z,91.41
2023-03-02T06:05:52.473Z,91.53
2023-03-02T06:06:24.072Z,91.27
2023-03-02T06:06:55.775Z,91.18
2023-03-02T06:07:27.505Z,91.09
2023-03-02T06:07:59.200Z,90.86
2023-03-02T06:08:30.845Z,90.62
2023-03-02T06:09:02.495Z,90.42
2023-03-02T06:09:34.247Z,90.79
2023-03-02T06:10:07.531Z,91.17
2023-03-02T06:10:39.251Z,91.35
2023-03-02T06:11:11.396Z,91.59
2023-03-02T06:11:43.181Z,91.42
2023-03-02T06:12:15.036Z,91.33
2023-03-02T06:12:46.687Z,91.13
2023-03-02T06:13:18.323Z,91.45
2023-03-02T06:13:49.977Z,91.58
2023-03-02T06:14:21.587Z,91.25
2023-03-02T06:14:53.216Z,91.26
2023-03-02T06:15:24.908Z,91.40
2023-03-02T06:15:57.119Z,91.20
2023-03-02T06:16:28.814Z,90.95
2023-03-02T06:17:00.675Z,91.13
2023-03-02T06:17:32.656Z,91.02
2023-03-02T06:18:04.450Z,90.39
2023-03-02T06:18:38.756Z,90.92
2023-03-02T06:19:11.394Z,90.73
2023-03-02T06:19:43.292Z,91.06
2023-03-02T06:20:16.202Z,91.02
2023-03-02T06:20:47.842Z,90.87
2023-03-02T06:21:19.486Z,90.98
2023-03-02T06:21:51.152Z,90.69
2023-03-02T06:22:22.925Z,90.65
2023-03-02T06:22:55.170Z,90.67
2023-03-02T06:23:26.811Z,90.41
2023-03-02T06:23:58.565Z,90.23
2023-03-02T06:24:30.266Z,90.08
2023-03-02T06:25:02.023Z,89.74
2023-03-02T06:25:33.788Z,89.74
2023-03-02T06:26:12.701Z,90.03
2023-03-02T06:26:44.465Z,90.23
2023-03-02T06:27:16.705Z,90.74
2023-03-02T06:27:51.984Z,91.06
2023-03-02T06:28:23.726Z,91.29
2023-03-02T06:28:55.339Z,90.98
2023-03-02T06:29:27.063Z,90.54
2023-03-02T06:29:58.743Z,89.98
2023-03-02T06:30:30.595Z,89.66
2023-03-02T06:31:02.374Z,89.31
2023-03-02T06:31:34.776Z,88.67
2023-03-02T06:32:06.699Z,88.37
2023-03-02T06:32:38.481Z,88.38
2023-03-02T06:33:10.455Z,88.29
2023-03-02T06:33:42.059Z,88.15
2023-03-02T06:34:13.713Z,88.29
2023-03-02T06:34:45.407Z,88.53
2023-03-02T06:35:17.503Z,88.89
2023-03-02T06:35:49.671Z,88.57
2023-03-02T06:36:21.380Z,87.97
2023-03-02T06:36:53.129Z,87.46
2023-03-02T06:37:24.745Z,86.87
2023-03-02T06:37:56.541Z,86.54
2023-03-02T06:38:28.120Z,85.25
2023-03-02T06:38:59.723Z,84.39
2023-03-02T06:39:31.422Z,83.67
2023-03-02T06:40:14.274Z,83.51
2023-03-02T06:40:46.625Z,84.21
2023-03-02T06:41:18.309Z,84.79
2023-03-02T06:41:50.161Z,83.92
2023-03-02T06:42:22.230Z,83.25
2023-03-02T06:42:53.980Z,82.41
2023-03-02T06:43:25.551Z,81.85
2023-03-02T06:43:57.400Z,80.96
2023-03-02T06:44:29.147Z,81.31
2023-03-02T06:45:00.734Z,81.65
2023-03-02T06:45:34.083Z,80.45
2023-03-02T06:46:05.955Z,79.94
2023-03-02T06:46:38.939Z,79.31
2023-03-02T06:47:10.540Z,78.96
2023-03-02T06:47:42.163Z,78.46
2023-03-02T06:48:13.890Z,78.55
2023-03-02T06:48:45.686Z,78.34
2023-03-02T06:49:17.346Z,78.24
2023-03-02T06:49:49.292Z,77.73
2023-03-02T06:50:21.043Z,77.77
2023-03-02T06:50:52.672Z,77.99
2023-03-02T06:51:24.299Z,78.63
2023-03-02T06:51:55.935Z,79.00
2023-03-02T06:52:27.625Z,79.85
2023-03-02T06:52:59.409Z,79.82
2023-03-02T06:53:31.017Z,80.16
2023-03-02T06:54:03.350Z,79.78
2023-03-02T06:54:35.331Z,79.99
2023-03-02T06:55:07.520Z,79.79
2023-03-02T06:55:39.108Z,79.56
2023-03-02T06:56:10.795Z,79.64
2023-03-02T06:56:42.546Z,79.24
2023-03-02T06:57:14.337Z,79.23
2023-03-02T06:57:45.983Z,78.84
2023-03-02T06:58:17.979Z,78.68
2023-03-02T06:58:50.032Z,79.04
2023-03-02T06:59:21.652Z,79.17
2023-03-02T06:59:53.211Z,79.37
2023-03-02T07:00:26.362Z,79.56
2023-03-02T07:00:58.064Z,79.35
2023-03-02T07:01:36.092Z,79.36
2023-03-02T07:02:10.620Z,80.04
2023-03-02T07:02:42.461Z,79.69
2023-03-02T07:03:14.170Z,79.78
2023-03-02T07:03:45.936Z,80.63
2023-03-02T07:04:17.792Z,80.92
2023-03-02T07:04:49.373Z,80.85
2023-03-02T07:05:21.814Z,80.88
2023-03-02T07:05:53.660Z,81.76
2023-03-02T07:06:25.241Z,80.52
2023-03-02T07:06:57.266Z,80.00
2023-03-02T07:07:28.930Z,80.23
2023-03-02T07:08:00.910Z,80.76
2023-03-02T07:08:32.626Z,80.72
2023-03-02T07:09:04.755Z,80.51